sensor_id;sensor_type;location;lat;lon;timestamp;P1;durP1;ratioP1;P2;durP2;ratioP2
76409;SDS011;65238;42.662;23.280;2023-06-19T00:01:45;5.70;;;4.25;;
76409;SDS011;65238;42.662;23.280;2023-06-19T00:04:11;5.65;;;3.85;;
76409;SDS011;65238;42.662;23.280;2023-06-19T00:06:36;6.00;;;3.88;;
76409;SDS011;65238;42.662;23.280;2023-06-19T00:09:05;4.45;;;3.80;;
76409;SDS011;65238;42.662;23.280;2023-06-19T00:11:31;5.00;;;3.88;;
76409;SDS011;65238;42.662;23.280;2023-06-19T00:13:57;6.25;;;4.00;;
76409;SDS011;65238;42.662;23.280;2023-06-19T00:16:22;5.18;;;3.55;;
76409;SDS011;65238;42.662;23.280;2023-06-19T00:18:50;5.22;;;3.80;;
76409;SDS011;65238;42.662;23.280;2023-06-19T00:21:16;4.82;;;3.70;;
76409;SDS011;65238;42.662;23.280;2023-06-19T00:23:42;6.25;;;4.10;;
76409;SDS011;65238;42.662;23.280;2023-06-19T00:26:07;8.10;;;4.00;;
76409;SDS011;65238;42.662;23.280;2023-06-19T00:28:33;5.28;;;3.60;;
76409;SDS011;65238;42.662;23.280;2023-06-19T00:30:59;5.78;;;3.83;;
76409;SDS011;65238;42.662;23.280;2023-06-19T00:33:24;6.07;;;3.97;;
76409;SDS011;65238;42.662;23.280;2023-06-19T00:35:50;5.50;;;4.13;;
76409;SDS011;65238;42.662;23.280;2023-06-19T00:38:15;5.40;;;3.55;;
76409;SDS011;65238;42.662;23.280;2023-06-19T00:40:41;7.38;;;3.78;;
76409;SDS011;65238;42.662;23.280;2023-06-19T00:43:06;4.43;;;3.63;;
76409;SDS011;65238;42.662;23.280;2023-06-19T00:45:32;8.40;;;3.85;;
76409;SDS011;65238;42.662;23.280;2023-06-19T00:47:58;4.00;;;3.60;;
76409;SDS011;65238;42.662;23.280;2023-06-19T00:50:24;7.20;;;3.88;;
76409;SDS011;65238;42.662;23.280;2023-06-19T00:52:50;6.25;;;3.83;;
76409;SDS011;65238;42.662;23.280;2023-06-19T00:55:16;5.93;;;3.97;;
76409;SDS011;65238;42.662;23.280;2023-06-19T00:57:41;5.82;;;4.00;;
76409;SDS011;65238;42.662;23.280;2023-06-19T01:00:08;5.30;;;3.88;;
76409;SDS011;65238;42.662;23.280;2023-06-19T01:02:37;5.55;;;4.25;;
76409;SDS011;65238;42.662;23.280;2023-06-19T01:05:03;6.03;;;3.97;;
76409;SDS011;65238;42.662;23.280;2023-06-19T01:10:25;5.65;;;4.50;;
76409;SDS011;65238;42.662;23.280;2023-06-19T01:12:55;4.95;;;3.67;;
76409;SDS011;65238;42.662;23.280;2023-06-19T01:15:22;4.93;;;3.90;;
76409;SDS011;65238;42.662;23.280;2023-06-19T01:17:48;6.45;;;4.30;;
76409;SDS011;65238;42.662;23.280;2023-06-19T01:20:14;4.28;;;3.63;;
76409;SDS011;65238;42.662;23.280;2023-06-19T01:22:40;5.15;;;3.95;;
76409;SDS011;65238;42.662;23.280;2023-06-19T01:25:09;5.28;;;4.25;;
76409;SDS011;65238;42.662;23.280;2023-06-19T01:27:35;4.38;;;3.80;;
76409;SDS011;65238;42.662;23.280;2023-06-19T01:30:01;6.05;;;4.07;;
76409;SDS011;65238;42.662;23.280;2023-06-19T01:32:37;5.28;;;4.07;;
76409;SDS011;65238;42.662;23.280;2023-06-19T01:35:07;7.75;;;3.92;;
76409;SDS011;65238;42.662;23.280;2023-06-19T01:37:36;8.05;;;5.07;;
76409;SDS011;65238;42.662;23.280;2023-06-19T01:40:03;7.32;;;3.83;;
76409;SDS011;65238;42.662;23.280;2023-06-19T01:42:32;7.25;;;4.45;;
76409;SDS011;65238;42.662;23.280;2023-06-19T01:44:59;4.43;;;3.72;;
76409;SDS011;65238;42.662;23.280;2023-06-19T01:47:25;7.95;;;4.32;;
76409;SDS011;65238;42.662;23.280;2023-06-19T01:49:50;6.60;;;4.15;;
76409;SDS011;65238;42.662;23.280;2023-06-19T01:52:16;5.75;;;4.53;;
76409;SDS011;65238;42.662;23.280;2023-06-19T01:54:41;6.28;;;4.32;;
76409;SDS011;65238;42.662;23.280;2023-06-19T01:57:07;6.50;;;4.30;;
76409;SDS011;65238;42.662;23.280;2023-06-19T01:59:33;7.05;;;4.30;;
76409;SDS011;65238;42.662;23.280;2023-06-19T02:01:58;6.80;;;5.30;;
76409;SDS011;65238;42.662;23.280;2023-06-19T02:04:23;7.28;;;4.47;;
76409;SDS011;65238;42.662;23.280;2023-06-19T02:06:49;7.28;;;4.43;;
76409;SDS011;65238;42.662;23.280;2023-06-19T02:09:14;5.80;;;4.35;;
76409;SDS011;65238;42.662;23.280;2023-06-19T02:11:40;9.57;;;5.40;;
76409;SDS011;65238;42.662;23.280;2023-06-19T02:14:05;8.82;;;4.72;;
76409;SDS011;65238;42.662;23.280;2023-06-19T02:16:30;5.40;;;4.15;;
76409;SDS011;65238;42.662;23.280;2023-06-19T02:18:56;6.07;;;4.30;;
76409;SDS011;65238;42.662;23.280;2023-06-19T02:21:22;7.18;;;4.40;;
76409;SDS011;65238;42.662;23.280;2023-06-19T02:23:48;7.05;;;5.07;;
76409;SDS011;65238;42.662;23.280;2023-06-19T02:26:13;5.68;;;3.95;;
76409;SDS011;65238;42.662;23.280;2023-06-19T02:28:38;6.60;;;4.35;;
76409;SDS011;65238;42.662;23.280;2023-06-19T02:31:04;9.27;;;4.60;;
76409;SDS011;65238;42.662;23.280;2023-06-19T02:33:29;20.40;;;5.60;;
76409;SDS011;65238;42.662;23.280;2023-06-19T02:35:55;8.07;;;4.80;;
76409;SDS011;65238;42.662;23.280;2023-06-19T02:38:24;7.63;;;4.60;;
76409;SDS011;65238;42.662;23.280;2023-06-19T02:40:54;6.88;;;4.88;;
76409;SDS011;65238;42.662;23.280;2023-06-19T02:43:20;9.15;;;4.68;;
76409;SDS011;65238;42.662;23.280;2023-06-19T02:45:45;6.60;;;4.93;;
76409;SDS011;65238;42.662;23.280;2023-06-19T02:48:11;7.53;;;5.18;;
76409;SDS011;65238;42.662;23.280;2023-06-19T02:50:36;9.18;;;5.03;;
76409;SDS011;65238;42.662;23.280;2023-06-19T02:53:01;10.93;;;5.50;;
76409;SDS011;65238;42.662;23.280;2023-06-19T02:55:27;10.15;;;5.22;;
76409;SDS011;65238;42.662;23.280;2023-06-19T02:57:52;6.35;;;5.13;;
76409;SDS011;65238;42.662;23.280;2023-06-19T03:00:18;7.78;;;4.82;;
76409;SDS011;65238;42.662;23.280;2023-06-19T03:02:44;7.95;;;4.90;;
76409;SDS011;65238;42.662;23.280;2023-06-19T03:05:11;12.60;;;5.30;;
76409;SDS011;65238;42.662;23.280;2023-06-19T03:07:39;7.35;;;5.40;;
76409;SDS011;65238;42.662;23.280;2023-06-19T03:10:05;10.15;;;5.63;;
76409;SDS011;65238;42.662;23.280;2023-06-19T03:12:31;8.85;;;5.13;;
76409;SDS011;65238;42.662;23.280;2023-06-19T03:14:56;7.30;;;4.95;;
76409;SDS011;65238;42.662;23.280;2023-06-19T03:17:21;7.93;;;5.82;;
76409;SDS011;65238;42.662;23.280;2023-06-19T03:19:47;8.00;;;5.18;;
76409;SDS011;65238;42.662;23.280;2023-06-19T03:22:12;10.57;;;5.60;;
76409;SDS011;65238;42.662;23.280;2023-06-19T03:24:38;7.40;;;5.18;;
76409;SDS011;65238;42.662;23.280;2023-06-19T03:27:03;10.98;;;5.95;;
76409;SDS011;65238;42.662;23.280;2023-06-19T03:29:31;11.63;;;6.28;;
76409;SDS011;65238;42.662;23.280;2023-06-19T03:31:57;9.85;;;5.60;;
76409;SDS011;65238;42.662;23.280;2023-06-19T03:34:22;9.38;;;5.53;;
76409;SDS011;65238;42.662;23.280;2023-06-19T03:36:47;11.60;;;6.30;;
76409;SDS011;65238;42.662;23.280;2023-06-19T03:39:13;8.73;;;5.75;;
76409;SDS011;65238;42.662;23.280;2023-06-19T03:41:39;6.85;;;4.97;;
76409;SDS011;65238;42.662;23.280;2023-06-19T03:44:04;11.95;;;7.68;;
76409;SDS011;65238;42.662;23.280;2023-06-19T03:46:29;13.77;;;6.68;;
76409;SDS011;65238;42.662;23.280;2023-06-19T03:48:55;8.55;;;5.25;;
76409;SDS011;65238;42.662;23.280;2023-06-19T03:51:20;6.28;;;4.97;;
76409;SDS011;65238;42.662;23.280;2023-06-19T03:53:46;5.68;;;4.47;;
76409;SDS011;65238;42.662;23.280;2023-06-19T03:56:11;13.52;;;6.97;;
76409;SDS011;65238;42.662;23.280;2023-06-19T03:58:37;11.40;;;5.28;;
76409;SDS011;65238;42.662;23.280;2023-06-19T04:01:02;9.25;;;6.18;;
76409;SDS011;65238;42.662;23.280;2023-06-19T04:03:28;10.00;;;5.90;;
76409;SDS011;65238;42.662;23.280;2023-06-19T04:05:53;11.35;;;5.70;;
76409;SDS011;65238;42.662;23.280;2023-06-19T04:08:19;8.45;;;5.03;;
76409;SDS011;65238;42.662;23.280;2023-06-19T04:10:44;11.55;;;5.93;;
76409;SDS011;65238;42.662;23.280;2023-06-19T04:13:10;7.05;;;5.32;;
76409;SDS011;65238;42.662;23.280;2023-06-19T04:15:35;6.95;;;4.78;;
76409;SDS011;65238;42.662;23.280;2023-06-19T04:18:02;13.52;;;5.20;;
76409;SDS011;65238;42.662;23.280;2023-06-19T04:20:27;8.90;;;5.50;;
76409;SDS011;65238;42.662;23.280;2023-06-19T04:22:52;7.38;;;5.28;;
76409;SDS011;65238;42.662;23.280;2023-06-19T04:25:18;9.98;;;5.25;;
76409;SDS011;65238;42.662;23.280;2023-06-19T04:27:45;10.32;;;5.13;;
76409;SDS011;65238;42.662;23.280;2023-06-19T04:30:10;6.32;;;4.53;;
76409;SDS011;65238;42.662;23.280;2023-06-19T04:32:37;8.50;;;5.05;;
76409;SDS011;65238;42.662;23.280;2023-06-19T04:35:09;7.55;;;4.50;;
76409;SDS011;65238;42.662;23.280;2023-06-19T04:37:35;7.45;;;4.88;;
76409;SDS011;65238;42.662;23.280;2023-06-19T04:40:00;15.63;;;11.25;;
76409;SDS011;65238;42.662;23.280;2023-06-19T04:42:26;11.43;;;7.95;;
76409;SDS011;65238;42.662;23.280;2023-06-19T04:44:52;12.25;;;6.15;;
76409;SDS011;65238;42.662;23.280;2023-06-19T04:47:19;9.10;;;4.90;;
76409;SDS011;65238;42.662;23.280;2023-06-19T04:49:45;5.85;;;4.63;;
76409;SDS011;65238;42.662;23.280;2023-06-19T04:52:11;11.93;;;6.60;;
76409;SDS011;65238;42.662;23.280;2023-06-19T04:54:36;9.18;;;5.45;;
76409;SDS011;65238;42.662;23.280;2023-06-19T04:57:02;6.50;;;4.82;;
76409;SDS011;65238;42.662;23.280;2023-06-19T04:59:28;8.88;;;4.63;;
76409;SDS011;65238;42.662;23.280;2023-06-19T05:01:55;9.48;;;4.50;;
76409;SDS011;65238;42.662;23.280;2023-06-19T05:04:21;8.65;;;4.63;;
76409;SDS011;65238;42.662;23.280;2023-06-19T05:06:47;7.28;;;5.25;;
76409;SDS011;65238;42.662;23.280;2023-06-19T05:09:13;5.28;;;4.15;;
76409;SDS011;65238;42.662;23.280;2023-06-19T05:11:38;8.07;;;4.38;;
76409;SDS011;65238;42.662;23.280;2023-06-19T05:14:04;5.03;;;3.72;;
76409;SDS011;65238;42.662;23.280;2023-06-19T05:16:29;5.57;;;4.03;;
76409;SDS011;65238;42.662;23.280;2023-06-19T05:18:55;6.47;;;4.05;;
76409;SDS011;65238;42.662;23.280;2023-06-19T05:21:20;8.43;;;4.32;;
76409;SDS011;65238;42.662;23.280;2023-06-19T05:23:45;4.82;;;3.83;;
76409;SDS011;65238;42.662;23.280;2023-06-19T05:26:15;6.57;;;3.88;;
76409;SDS011;65238;42.662;23.280;2023-06-19T05:28:44;6.20;;;3.95;;
76409;SDS011;65238;42.662;23.280;2023-06-19T05:31:09;4.50;;;3.90;;
76409;SDS011;65238;42.662;23.280;2023-06-19T05:33:34;6.75;;;3.95;;
76409;SDS011;65238;42.662;23.280;2023-06-19T05:36:00;4.97;;;4.10;;
76409;SDS011;65238;42.662;23.280;2023-06-19T05:38:26;7.00;;;4.13;;
76409;SDS011;65238;42.662;23.280;2023-06-19T05:40:53;4.97;;;3.75;;
76409;SDS011;65238;42.662;23.280;2023-06-19T05:43:18;7.13;;;3.92;;
76409;SDS011;65238;42.662;23.280;2023-06-19T05:45:44;6.57;;;4.20;;
76409;SDS011;65238;42.662;23.280;2023-06-19T05:48:09;5.30;;;3.53;;
76409;SDS011;65238;42.662;23.280;2023-06-19T05:50:35;4.18;;;3.55;;
76409;SDS011;65238;42.662;23.280;2023-06-19T05:53:00;4.47;;;3.92;;
76409;SDS011;65238;42.662;23.280;2023-06-19T05:55:25;4.55;;;3.97;;
76409;SDS011;65238;42.662;23.280;2023-06-19T05:57:52;6.28;;;4.43;;
76409;SDS011;65238;42.662;23.280;2023-06-19T06:00:18;5.40;;;3.90;;
76409;SDS011;65238;42.662;23.280;2023-06-19T06:02:44;4.35;;;3.78;;
76409;SDS011;65238;42.662;23.280;2023-06-19T06:05:09;6.10;;;3.58;;
76409;SDS011;65238;42.662;23.280;2023-06-19T06:07:35;7.18;;;4.03;;
76409;SDS011;65238;42.662;23.280;2023-06-19T06:10:01;4.65;;;3.95;;
76409;SDS011;65238;42.662;23.280;2023-06-19T06:12:27;6.97;;;4.07;;
76409;SDS011;65238;42.662;23.280;2023-06-19T06:14:52;7.15;;;4.43;;
76409;SDS011;65238;42.662;23.280;2023-06-19T06:17:18;6.57;;;4.32;;
76409;SDS011;65238;42.662;23.280;2023-06-19T06:19:43;11.98;;;4.35;;
76409;SDS011;65238;42.662;23.280;2023-06-19T06:22:08;5.72;;;3.53;;
76409;SDS011;65238;42.662;23.280;2023-06-19T06:24:34;5.20;;;3.67;;
76409;SDS011;65238;42.662;23.280;2023-06-19T06:26:59;6.88;;;4.75;;
76409;SDS011;65238;42.662;23.280;2023-06-19T06:29:25;5.05;;;4.00;;
76409;SDS011;65238;42.662;23.280;2023-06-19T06:31:50;6.80;;;3.75;;
76409;SDS011;65238;42.662;23.280;2023-06-19T06:34:18;6.40;;;4.00;;
76409;SDS011;65238;42.662;23.280;2023-06-19T06:36:44;4.65;;;4.13;;
76409;SDS011;65238;42.662;23.280;2023-06-19T06:39:10;9.15;;;4.10;;
76409;SDS011;65238;42.662;23.280;2023-06-19T06:41:36;5.22;;;3.70;;
76409;SDS011;65238;42.662;23.280;2023-06-19T06:44:01;5.63;;;3.50;;
76409;SDS011;65238;42.662;23.280;2023-06-19T06:46:27;5.20;;;3.80;;
76409;SDS011;65238;42.662;23.280;2023-06-19T06:48:52;7.93;;;4.65;;
76409;SDS011;65238;42.662;23.280;2023-06-19T06:51:18;6.78;;;4.78;;
76409;SDS011;65238;42.662;23.280;2023-06-19T06:53:43;6.53;;;4.47;;
76409;SDS011;65238;42.662;23.280;2023-06-19T06:56:09;6.68;;;4.53;;
76409;SDS011;65238;42.662;23.280;2023-06-19T06:58:35;5.80;;;3.78;;
76409;SDS011;65238;42.662;23.280;2023-06-19T07:01:01;4.80;;;3.67;;
76409;SDS011;65238;42.662;23.280;2023-06-19T07:03:27;4.65;;;3.63;;
76409;SDS011;65238;42.662;23.280;2023-06-19T07:05:55;6.95;;;3.80;;
76409;SDS011;65238;42.662;23.280;2023-06-19T07:08:20;4.88;;;3.50;;
76409;SDS011;65238;42.662;23.280;2023-06-19T07:10:45;4.20;;;3.53;;
76409;SDS011;65238;42.662;23.280;2023-06-19T07:13:11;6.07;;;3.75;;
76409;SDS011;65238;42.662;23.280;2023-06-19T07:15:36;5.03;;;3.88;;
76409;SDS011;65238;42.662;23.280;2023-06-19T07:18:02;5.65;;;3.78;;
76409;SDS011;65238;42.662;23.280;2023-06-19T07:20:27;6.75;;;3.78;;
76409;SDS011;65238;42.662;23.280;2023-06-19T07:22:53;6.05;;;3.67;;
76409;SDS011;65238;42.662;23.280;2023-06-19T07:25:18;5.63;;;4.20;;
76409;SDS011;65238;42.662;23.280;2023-06-19T07:27:44;6.18;;;4.00;;
76409;SDS011;65238;42.662;23.280;2023-06-19T07:30:09;6.25;;;3.65;;
76409;SDS011;65238;42.662;23.280;2023-06-19T07:32:36;5.78;;;3.85;;
76409;SDS011;65238;42.662;23.280;2023-06-19T07:35:02;4.82;;;3.63;;
76409;SDS011;65238;42.662;23.280;2023-06-19T07:37:28;5.40;;;4.00;;
76409;SDS011;65238;42.662;23.280;2023-06-19T07:39:53;7.20;;;3.80;;
76409;SDS011;65238;42.662;23.280;2023-06-19T07:42:19;5.05;;;3.78;;
76409;SDS011;65238;42.662;23.280;2023-06-19T07:44:44;7.82;;;3.28;;
76409;SDS011;65238;42.662;23.280;2023-06-19T07:47:10;8.50;;;3.55;;
76409;SDS011;65238;42.662;23.280;2023-06-19T07:49:36;5.35;;;3.60;;
76409;SDS011;65238;42.662;23.280;2023-06-19T07:52:04;5.35;;;3.63;;
76409;SDS011;65238;42.662;23.280;2023-06-19T07:54:34;3.75;;;3.35;;
76409;SDS011;65238;42.662;23.280;2023-06-19T07:57:00;4.47;;;3.50;;
76409;SDS011;65238;42.662;23.280;2023-06-19T07:59:25;4.50;;;3.70;;
76409;SDS011;65238;42.662;23.280;2023-06-19T08:01:51;7.07;;;3.35;;
76409;SDS011;65238;42.662;23.280;2023-06-19T08:04:16;4.50;;;3.65;;
76409;SDS011;65238;42.662;23.280;2023-06-19T08:06:42;4.38;;;3.53;;
76409;SDS011;65238;42.662;23.280;2023-06-19T08:09:07;5.15;;;3.92;;
76409;SDS011;65238;42.662;23.280;2023-06-19T08:11:33;4.15;;;3.55;;
76409;SDS011;65238;42.662;23.280;2023-06-19T08:13:58;5.70;;;3.40;;
76409;SDS011;65238;42.662;23.280;2023-06-19T08:16:27;6.53;;;3.70;;
76409;SDS011;65238;42.662;23.280;2023-06-19T08:18:52;4.13;;;3.28;;
76409;SDS011;65238;42.662;23.280;2023-06-19T08:21:18;4.88;;;3.28;;
76409;SDS011;65238;42.662;23.280;2023-06-19T08:23:45;5.18;;;3.25;;
76409;SDS011;65238;42.662;23.280;2023-06-19T08:26:10;5.78;;;3.10;;
76409;SDS011;65238;42.662;23.280;2023-06-19T08:28:36;5.85;;;3.70;;
76409;SDS011;65238;42.662;23.280;2023-06-19T08:31:02;4.50;;;3.38;;
76409;SDS011;65238;42.662;23.280;2023-06-19T08:33:27;3.58;;;3.25;;
76409;SDS011;65238;42.662;23.280;2023-06-19T08:35:53;4.70;;;3.65;;
76409;SDS011;65238;42.662;23.280;2023-06-19T08:38:18;4.88;;;3.65;;
76409;SDS011;65238;42.662;23.280;2023-06-19T08:40:44;3.50;;;3.15;;
76409;SDS011;65238;42.662;23.280;2023-06-19T08:43:10;4.05;;;3.20;;
76409;SDS011;65238;42.662;23.280;2023-06-19T08:45:35;5.97;;;3.30;;
76409;SDS011;65238;42.662;23.280;2023-06-19T08:48:01;6.50;;;3.47;;
76409;SDS011;65238;42.662;23.280;2023-06-19T08:50:31;3.97;;;3.40;;
76409;SDS011;65238;42.662;23.280;2023-06-19T08:52:57;4.93;;;3.35;;
76409;SDS011;65238;42.662;23.280;2023-06-19T08:55:23;4.57;;;3.67;;
76409;SDS011;65238;42.662;23.280;2023-06-19T08:57:48;4.82;;;3.35;;
76409;SDS011;65238;42.662;23.280;2023-06-19T09:00:36;5.15;;;3.13;;
76409;SDS011;65238;42.662;23.280;2023-06-19T09:03:01;6.55;;;3.38;;
76409;SDS011;65238;42.662;23.280;2023-06-19T09:05:27;5.05;;;3.55;;
76409;SDS011;65238;42.662;23.280;2023-06-19T09:07:57;5.18;;;3.13;;
76409;SDS011;65238;42.662;23.280;2023-06-19T09:10:25;4.38;;;3.03;;
76409;SDS011;65238;42.662;23.280;2023-06-19T09:13:01;7.22;;;3.72;;
76409;SDS011;65238;42.662;23.280;2023-06-19T09:15:31;3.00;;;2.63;;
76409;SDS011;65238;42.662;23.280;2023-06-19T09:18:06;3.58;;;3.10;;
76409;SDS011;65238;42.662;23.280;2023-06-19T09:20:42;5.38;;;3.40;;
76409;SDS011;65238;42.662;23.280;2023-06-19T09:23:12;4.25;;;3.22;;
76409;SDS011;65238;42.662;23.280;2023-06-19T09:25:51;4.15;;;3.13;;
76409;SDS011;65238;42.662;23.280;2023-06-19T09:28:23;4.60;;;3.20;;
76409;SDS011;65238;42.662;23.280;2023-06-19T09:30:53;7.35;;;3.65;;
76409;SDS011;65238;42.662;23.280;2023-06-19T09:33:24;4.90;;;3.20;;
76409;SDS011;65238;42.662;23.280;2023-06-19T09:35:50;5.15;;;3.25;;
76409;SDS011;65238;42.662;23.280;2023-06-19T09:38:17;4.75;;;3.70;;
76409;SDS011;65238;42.662;23.280;2023-06-19T09:40:45;5.93;;;3.45;;
76409;SDS011;65238;42.662;23.280;2023-06-19T09:43:11;5.00;;;3.42;;
76409;SDS011;65238;42.662;23.280;2023-06-19T09:45:38;5.63;;;3.70;;
76409;SDS011;65238;42.662;23.280;2023-06-19T09:48:04;5.03;;;3.40;;
76409;SDS011;65238;42.662;23.280;2023-06-19T09:50:31;4.82;;;3.53;;
76409;SDS011;65238;42.662;23.280;2023-06-19T09:52:59;4.90;;;3.72;;
76409;SDS011;65238;42.662;23.280;2023-06-19T09:55:25;6.25;;;4.03;;
76409;SDS011;65238;42.662;23.280;2023-06-19T09:57:54;5.70;;;4.78;;
76409;SDS011;65238;42.662;23.280;2023-06-19T10:00:19;6.65;;;3.40;;
76409;SDS011;65238;42.662;23.280;2023-06-19T10:02:48;6.07;;;3.85;;
76409;SDS011;65238;42.662;23.280;2023-06-19T10:05:14;6.45;;;4.00;;
76409;SDS011;65238;42.662;23.280;2023-06-19T10:07:45;6.22;;;3.88;;
76409;SDS011;65238;42.662;23.280;2023-06-19T10:10:24;4.63;;;3.50;;
76409;SDS011;65238;42.662;23.280;2023-06-19T10:12:52;5.10;;;3.72;;
76409;SDS011;65238;42.662;23.280;2023-06-19T10:17:51;3.83;;;3.42;;
76409;SDS011;65238;42.662;23.280;2023-06-19T10:20:19;3.75;;;3.13;;
76409;SDS011;65238;42.662;23.280;2023-06-19T10:23:18;4.95;;;3.60;;
76409;SDS011;65238;42.662;23.280;2023-06-19T10:25:57;3.92;;;3.22;;
76409;SDS011;65238;42.662;23.280;2023-06-19T10:28:28;5.25;;;3.70;;
76409;SDS011;65238;42.662;23.280;2023-06-19T10:33:24;5.65;;;3.08;;
76409;SDS011;65238;42.662;23.280;2023-06-19T10:35:51;4.00;;;3.42;;
76409;SDS011;65238;42.662;23.280;2023-06-19T10:38:16;5.32;;;3.75;;
76409;SDS011;65238;42.662;23.280;2023-06-19T10:40:43;4.25;;;3.50;;
76409;SDS011;65238;42.662;23.280;2023-06-19T10:43:12;6.05;;;4.13;;
76409;SDS011;65238;42.662;23.280;2023-06-19T10:45:39;7.03;;;4.43;;
76409;SDS011;65238;42.662;23.280;2023-06-19T10:48:04;4.07;;;3.67;;
76409;SDS011;65238;42.662;23.280;2023-06-19T10:50:33;6.40;;;3.85;;
76409;SDS011;65238;42.662;23.280;2023-06-19T10:53:00;5.38;;;4.15;;
76409;SDS011;65238;42.662;23.280;2023-06-19T10:55:26;4.22;;;3.65;;
76409;SDS011;65238;42.662;23.280;2023-06-19T10:57:51;5.03;;;3.85;;
76409;SDS011;65238;42.662;23.280;2023-06-19T11:00:23;4.35;;;3.60;;
76409;SDS011;65238;42.662;23.280;2023-06-19T11:03:01;4.22;;;3.63;;
76409;SDS011;65238;42.662;23.280;2023-06-19T11:05:27;11.30;;;4.30;;
76409;SDS011;65238;42.662;23.280;2023-06-19T11:07:54;5.60;;;3.88;;
76409;SDS011;65238;42.662;23.280;2023-06-19T11:10:25;7.32;;;3.95;;
76409;SDS011;65238;42.662;23.280;2023-06-19T11:12:57;6.80;;;3.67;;
76409;SDS011;65238;42.662;23.280;2023-06-19T11:17:58;4.60;;;3.85;;
76409;SDS011;65238;42.662;23.280;2023-06-19T11:20:25;5.15;;;3.80;;
76409;SDS011;65238;42.662;23.280;2023-06-19T11:22:57;6.60;;;3.72;;
76409;SDS011;65238;42.662;23.280;2023-06-19T11:25:23;5.03;;;3.53;;
76409;SDS011;65238;42.662;23.280;2023-06-19T11:27:49;6.65;;;3.80;;
76409;SDS011;65238;42.662;23.280;2023-06-19T11:30:17;4.50;;;3.63;;
76409;SDS011;65238;42.662;23.280;2023-06-19T11:32:45;6.13;;;4.05;;
76409;SDS011;65238;42.662;23.280;2023-06-19T11:35:15;5.95;;;4.00;;
76409;SDS011;65238;42.662;23.280;2023-06-19T11:37:41;6.10;;;3.70;;
76409;SDS011;65238;42.662;23.280;2023-06-19T11:40:08;5.35;;;4.05;;
76409;SDS011;65238;42.662;23.280;2023-06-19T11:42:44;11.05;;;4.05;;
76409;SDS011;65238;42.662;23.280;2023-06-19T11:45:10;5.50;;;3.92;;
76409;SDS011;65238;42.662;23.280;2023-06-19T11:47:36;4.28;;;3.63;;
76409;SDS011;65238;42.662;23.280;2023-06-19T11:50:08;6.20;;;3.88;;
76409;SDS011;65238;42.662;23.280;2023-06-19T11:52:34;6.90;;;4.13;;
76409;SDS011;65238;42.662;23.280;2023-06-19T11:54:59;4.20;;;3.83;;
76409;SDS011;65238;42.662;23.280;2023-06-19T11:57:26;5.22;;;4.20;;
76409;SDS011;65238;42.662;23.280;2023-06-19T12:00:01;4.70;;;3.80;;
76409;SDS011;65238;42.662;23.280;2023-06-19T12:02:38;10.60;;;3.85;;
76409;SDS011;65238;42.662;23.280;2023-06-19T12:05:06;4.65;;;3.92;;
76409;SDS011;65238;42.662;23.280;2023-06-19T12:07:32;6.72;;;4.35;;
76409;SDS011;65238;42.662;23.280;2023-06-19T12:09:59;4.68;;;3.88;;
76409;SDS011;65238;42.662;23.280;2023-06-19T12:15:15;6.78;;;4.07;;
76409;SDS011;65238;42.662;23.280;2023-06-19T12:17:41;9.32;;;4.50;;
76409;SDS011;65238;42.662;23.280;2023-06-19T12:20:06;5.32;;;4.00;;
76409;SDS011;65238;42.662;23.280;2023-06-19T12:22:33;4.90;;;4.10;;
76409;SDS011;65238;42.662;23.280;2023-06-19T12:24:59;5.07;;;4.07;;
76409;SDS011;65238;42.662;23.280;2023-06-19T12:27:26;4.45;;;3.47;;
76409;SDS011;65238;42.662;23.280;2023-06-19T12:29:51;7.05;;;3.88;;
76409;SDS011;65238;42.662;23.280;2023-06-19T12:32:16;4.75;;;3.75;;
76409;SDS011;65238;42.662;23.280;2023-06-19T12:34:42;6.93;;;4.68;;
76409;SDS011;65238;42.662;23.280;2023-06-19T12:37:12;4.47;;;4.00;;
76409;SDS011;65238;42.662;23.280;2023-06-19T12:39:39;6.53;;;3.65;;
76409;SDS011;65238;42.662;23.280;2023-06-19T12:42:05;4.65;;;4.18;;
76409;SDS011;65238;42.662;23.280;2023-06-19T12:44:31;10.60;;;3.97;;
76409;SDS011;65238;42.662;23.280;2023-06-19T12:46:57;5.88;;;3.40;;
76409;SDS011;65238;42.662;23.280;2023-06-19T12:49:25;4.72;;;3.90;;
76409;SDS011;65238;42.662;23.280;2023-06-19T12:51:50;10.18;;;4.07;;
76409;SDS011;65238;42.662;23.280;2023-06-19T12:54:17;8.40;;;3.80;;
76409;SDS011;65238;42.662;23.280;2023-06-19T12:56:42;6.10;;;4.05;;
76409;SDS011;65238;42.662;23.280;2023-06-19T12:59:08;6.60;;;3.97;;
76409;SDS011;65238;42.662;23.280;2023-06-19T13:01:34;6.93;;;4.07;;
76409;SDS011;65238;42.662;23.280;2023-06-19T13:03:59;4.65;;;3.75;;
76409;SDS011;65238;42.662;23.280;2023-06-19T13:06:24;4.82;;;4.00;;
76409;SDS011;65238;42.662;23.280;2023-06-19T13:08:50;4.55;;;3.33;;
76409;SDS011;65238;42.662;23.280;2023-06-19T13:11:15;7.18;;;4.13;;
76409;SDS011;65238;42.662;23.280;2023-06-19T13:13:41;7.05;;;4.85;;
76409;SDS011;65238;42.662;23.280;2023-06-19T13:16:07;8.25;;;3.75;;
76409;SDS011;65238;42.662;23.280;2023-06-19T13:18:32;8.30;;;4.13;;
76409;SDS011;65238;42.662;23.280;2023-06-19T13:20:58;5.28;;;3.83;;
76409;SDS011;65238;42.662;23.280;2023-06-19T13:23:23;4.93;;;3.58;;
76409;SDS011;65238;42.662;23.280;2023-06-19T13:25:49;4.70;;;3.40;;
76409;SDS011;65238;42.662;23.280;2023-06-19T13:28:15;4.70;;;3.53;;
76409;SDS011;65238;42.662;23.280;2023-06-19T13:30:40;5.05;;;3.95;;
76409;SDS011;65238;42.662;23.280;2023-06-19T13:33:05;5.22;;;3.70;;
76409;SDS011;65238;42.662;23.280;2023-06-19T13:35:31;4.38;;;3.85;;
76409;SDS011;65238;42.662;23.280;2023-06-19T13:37:56;4.18;;;3.78;;
76409;SDS011;65238;42.662;23.280;2023-06-19T13:40:22;4.90;;;3.80;;
76409;SDS011;65238;42.662;23.280;2023-06-19T13:42:47;5.65;;;3.90;;
76409;SDS011;65238;42.662;23.280;2023-06-19T13:45:13;6.68;;;3.88;;
76409;SDS011;65238;42.662;23.280;2023-06-19T13:47:38;5.15;;;3.50;;
76409;SDS011;65238;42.662;23.280;2023-06-19T13:50:07;5.07;;;3.75;;
76409;SDS011;65238;42.662;23.280;2023-06-19T13:52:34;5.60;;;3.70;;
76409;SDS011;65238;42.662;23.280;2023-06-19T13:54:59;5.10;;;3.47;;
76409;SDS011;65238;42.662;23.280;2023-06-19T13:57:27;3.88;;;3.10;;
76409;SDS011;65238;42.662;23.280;2023-06-19T13:59:52;3.97;;;3.58;;
76409;SDS011;65238;42.662;23.280;2023-06-19T14:02:18;5.82;;;3.72;;
76409;SDS011;65238;42.662;23.280;2023-06-19T14:04:43;15.05;;;8.32;;
76409;SDS011;65238;42.662;23.280;2023-06-19T14:07:09;16.08;;;12.43;;
76409;SDS011;65238;42.662;23.280;2023-06-19T14:09:34;6.90;;;4.95;;
76409;SDS011;65238;42.662;23.280;2023-06-19T14:12:00;4.53;;;3.67;;
76409;SDS011;65238;42.662;23.280;2023-06-19T14:14:25;5.18;;;4.18;;
76409;SDS011;65238;42.662;23.280;2023-06-19T14:16:51;8.63;;;4.18;;
76409;SDS011;65238;42.662;23.280;2023-06-19T14:19:16;7.57;;;5.07;;
76409;SDS011;65238;42.662;23.280;2023-06-19T14:21:42;7.53;;;4.93;;
76409;SDS011;65238;42.662;23.280;2023-06-19T14:24:07;6.63;;;4.32;;
76409;SDS011;65238;42.662;23.280;2023-06-19T14:26:32;4.55;;;3.80;;
76409;SDS011;65238;42.662;23.280;2023-06-19T14:28:58;7.13;;;4.28;;
76409;SDS011;65238;42.662;23.280;2023-06-19T14:31:24;4.47;;;3.70;;
76409;SDS011;65238;42.662;23.280;2023-06-19T14:33:49;5.68;;;3.80;;
76409;SDS011;65238;42.662;23.280;2023-06-19T14:36:15;6.10;;;4.05;;
76409;SDS011;65238;42.662;23.280;2023-06-19T14:38:40;6.95;;;3.95;;
76409;SDS011;65238;42.662;23.280;2023-06-19T14:41:06;7.05;;;4.32;;
76409;SDS011;65238;42.662;23.280;2023-06-19T14:43:31;12.02;;;4.47;;